createdAt,value
2022-11-02T00:02:11.904Z,69.73
2022-11-02T00:05:23.971Z,69.68
2022-11-02T00:08:30.102Z,69.71
2022-11-02T00:11:37.551Z,70.01
2022-11-02T00:14:43.749Z,70.11
2022-11-02T00:17:52.463Z,70.09
2022-11-02T00:20:58.910Z,69.96
2022-11-02T00:24:07.198Z,69.94
2022-11-02T00:27:13.692Z,69.92
2022-11-02T00:30:19.894Z,69.79
2022-11-02T00:33:25.950Z,69.78
2022-11-02T00:36:32.135Z,69.97
2022-11-02T00:39:38.173Z,70.06
2022-11-02T00:42:44.255Z,69.85
2022-11-02T00:45:50.285Z,69.84
2022-11-02T00:48:56.460Z,69.90
2022-11-02T00:52:03.389Z,69.80
2022-11-02T00:55:09.277Z,69.81
2022-11-02T00:58:13.793Z,69.98
2022-11-02T01:01:19.972Z,69.95
2022-11-02T01:04:24.846Z,69.57
2022-11-02T01:07:32.087Z,70.07
2022-11-02T01:10:39.045Z,70.17
2022-11-02T01:13:47.219Z,70.33
2022-11-02T01:16:53.291Z,70.68
2022-11-02T01:19:59.418Z,70.87
2022-11-02T01:23:05.577Z,70.83
2022-11-02T01:26:12.803Z,70.76
2022-11-02T01:29:19.418Z,70.55
2022-11-02T01:32:25.544Z,70.30
2022-11-02T01:35:31.580Z,70.16
2022-11-02T01:38:37.610Z,70.26
2022-11-02T01:41:43.917Z,70.18
2022-11-02T01:44:48.714Z,70.19
2022-11-02T01:47:54.952Z,70.25
2022-11-02T01:51:04.097Z,69.80
2022-11-02T01:54:14.171Z,69.71
2022-11-02T01:57:23.276Z,69.64
2022-11-02T02:00:29.422Z,69.63
2022-11-02T02:03:37.282Z,69.58
2022-11-02T02:06:45.247Z,69.60
2022-11-02T02:09:51.705Z,69.78
2022-11-02T02:12:57.983Z,69.74
2022-11-02T02:16:06.793Z,69.72
2022-11-02T02:19:25.162Z,70.09
2022-11-02T02:22:57.805Z,69.97
2022-11-02T02:26:39.644Z,70.16
2022-11-02T02:30:02.095Z,70.01
2022-11-02T02:33:13.783Z,70.04
2022-11-02T02:36:26.221Z,69.96
2022-11-02T02:39:37.797Z,70.07
2022-11-02T02:42:50.314Z,69.98
2022-11-02T02:46:01.712Z,69.97
2022-11-02T02:49:09.926Z,70.09
2022-11-02T02:52:19.556Z,70.21
2022-11-02T02:55:30.934Z,70.15
2022-11-02T02:58:43.771Z,70.14
2022-11-02T03:01:51.390Z,70.10
2022-11-02T03:04:57.591Z,69.97
2022-11-02T03:08:09.075Z,69.99
2022-11-02T03:11:18.413Z,69.86
2022-11-02T03:14:38.769Z,69.92
2022-11-02T03:18:04.281Z,69.92
2022-11-02T03:21:23.646Z,69.87
2022-11-02T03:24:37.985Z,69.76
2022-11-02T03:27:54.762Z,69.69
2022-11-02T03:31:08.329Z,69.62
2022-11-02T03:34:24.434Z,69.41
2022-11-02T03:37:31.033Z,69.28
2022-11-02T03:40:41.686Z,69.21
2022-11-02T03:43:50.335Z,68.80
2022-11-02T03:47:00.898Z,68.57
2022-11-02T03:50:10.509Z,68.65
2022-11-02T03:53:24.049Z,68.98
2022-11-02T03:56:35.130Z,69.12
2022-11-02T03:59:41.609Z,69.25
2022-11-02T04:02:50.481Z,68.67
2022-11-02T04:05:56.788Z,68.54
2022-11-02T04:09:03.181Z,68.53
2022-11-02T04:12:27.235Z,69.25
2022-11-02T04:15:33.373Z,69.38
2022-11-02T04:18:56.971Z,69.86
2022-11-02T04:22:20.748Z,69.73
2022-11-02T04:25:27.017Z,68.97
2022-11-02T04:28:31.764Z,68.58
2022-11-02T04:31:37.903Z,68.77
2022-11-02T04:34:43.842Z,69.31
2022-11-02T04:38:07.891Z,69.05
2022-11-02T04:41:33.878Z,68.82
2022-11-02T04:44:40.106Z,68.92
2022-11-02T04:47:46.219Z,69.47
2022-11-02T04:50:52.344Z,68.96
2022-11-02T04:53:59.252Z,68.71
2022-11-02T04:57:05.493Z,69.02
2022-11-02T05:00:11.201Z,68.32
2022-11-02T05:03:17.382Z,68.15
2022-11-02T05:06:24.584Z,67.78
2022-11-02T05:09:30.636Z,67.66
2022-11-02T05:12:36.850Z,67.21
2022-11-02T05:15:43.320Z,67.36
2022-11-02T05:18:49.553Z,67.14
2022-11-02T05:21:55.632Z,66.73
2022-11-02T05:25:01.693Z,66.67
2022-11-02T05:28:08.177Z,66.74
2022-11-02T05:31:14.429Z,66.81
2022-11-02T05:34:20.575Z,67.07
2022-11-02T05:37:26.664Z,67.21
2022-11-02T05:40:33.875Z,67.14
2022-11-02T05:43:40.096Z,67.06
2022-11-02T05:46:47.414Z,67.35
2022-11-02T05:49:53.561Z,67.66
2022-11-02T05:52:59.694Z,68.12
2022-11-02T05:56:08.019Z,68.43
2022-11-02T05:59:14.341Z,68.11
2022-11-02T06:02:21.934Z,68.17
2022-11-02T06:05:30.021Z,68.66
2022-11-02T06:08:37.303Z,68.79
2022-11-02T06:11:43.351Z,68.49
2022-11-02T06:14:49.383Z,68.54
2022-11-02T06:17:55.581Z,68.72
2022-11-02T06:21:01.935Z,68.52
2022-11-02T06:24:06.621Z,68.84
2022-11-02T06:27:12.745Z,69.32
2022-11-02T06:30:19.142Z,69.49
2022-11-02T06:33:25.410Z,69.48
2022-11-02T06:36:31.662Z,70.05
2022-11-02T06:43:03.293Z,69.83
2022-11-02T06:46:09.752Z,70.25
2022-11-02T06:49:15.856Z,70.60
2022-11-02T06:52:21.809Z,70.37
2022-11-02T06:55:28.003Z,70.57
2022-11-02T06:58:34.123Z,70.33
2022-11-02T07:01:40.264Z,70.22
2022-11-02T07:04:44.877Z,70.95
2022-11-02T07:07:53.747Z,71.46
2022-11-02T07:11:00.102Z,71.51
2022-11-02T07:14:04.590Z,72.06
2022-11-02T07:17:10.759Z,72.79
2022-11-02T07:20:17.426Z,72.79
2022-11-02T07:23:24.280Z,72.89
2022-11-02T07:26:30.813Z,73.07
2022-11-02T07:29:36.823Z,73.48
2022-11-02T07:32:47.038Z,74.14
2022-11-02T07:35:53.101Z,74.30
2022-11-02T07:38:59.123Z,75.56
2022-11-02T07:42:07.235Z,75.91
2022-11-02T07:45:14.069Z,76.37
2022-11-02T07:48:20.281Z,76.52
2022-11-02T07:51:26.901Z,76.14
2022-11-02T07:54:32.989Z,76.93
2022-11-02T07:57:39.002Z,77.55
2022-11-02T08:00:45.329Z,77.73
2022-11-02T08:03:49.782Z,77.94
2022-11-02T08:06:56.087Z,77.95
2022-11-02T08:10:00.646Z,76.84
2022-11-02T08:13:07.036Z,76.53
2022-11-02T08:16:13.146Z,75.48
2022-11-02T08:19:19.270Z,74.84
2022-11-02T08:22:25.361Z,74.46
2022-11-02T08:25:31.699Z,74.19
2022-11-02T08:28:40.219Z,73.99
2022-11-02T08:31:46.338Z,74.11
2022-11-02T08:34:52.369Z,73.56
2022-11-02T08:38:00.075Z,73.25
2022-11-02T08:41:06.596Z,73.02
2022-11-02T08:44:12.709Z,72.66
2022-11-02T08:47:19.289Z,72.36
2022-11-02T08:50:26.508Z,72.21
2022-11-02T08:53:32.981Z,71.93
2022-11-02T08:56:39.098Z,71.60
2022-11-02T08:59:43.597Z,71.53
2022-11-02T09:03:01.711Z,71.13
2022-11-02T09:06:08.386Z,70.87
2022-11-02T09:09:14.722Z,70.77
2022-11-02T09:12:20.686Z,70.60
2022-11-02T09:15:26.790Z,70.38
2022-11-02T09:18:33.344Z,69.98
2022-11-02T09:21:40.087Z,69.61
2022-11-02T09:24:46.157Z,69.46
2022-11-02T09:27:55.862Z,69.20
2022-11-02T09:31:03.826Z,69.03
2022-11-02T09:34:12.308Z,69.07
2022-11-02T09:37:16.953Z,68.79
2022-11-02T09:40:25.210Z,68.44
2022-11-02T09:43:42.012Z,67.63
2022-11-02T09:47:09.260Z,67.47
2022-11-02T09:50:19.967Z,67.30
2022-11-02T09:53:35.216Z,67.19
2022-11-02T09:56:41.997Z,66.86
2022-11-02T09:59:48.317Z,66.84
2022-11-02T10:03:03.282Z,66.80
2022-11-02T10:06:15.851Z,66.70
2022-11-02T10:09:30.815Z,66.43
2022-11-02T10:12:44.056Z,66.16
2022-11-02T10:15:54.450Z,66.08
2022-11-02T10:19:00.982Z,65.86
2022-11-02T10:22:09.956Z,65.22
2022-11-02T10:25:19.055Z,65.19
2022-11-02T10:28:32.682Z,65.39
2022-11-02T10:31:39.291Z,64.91
2022-11-02T10:34:58.728Z,64.67
2022-11-02T10:38:26.203Z,64.81
2022-11-02T10:41:50.907Z,64.27
2022-11-02T10:45:15.092Z,64.55
2022-11-02T10:48:30.577Z,63.74
2022-11-02T10:51:36.879Z,62.70
2022-11-02T10:54:43.382Z,62.17
2022-11-02T10:57:50.575Z,61.51
2022-11-02T11:01:08.180Z,61.28
2022-11-02T11:04:25.746Z,59.07
2022-11-02T11:07:32.351Z,58.25
2022-11-02T11:10:44.327Z,60.36
2022-11-02T11:20:58.958Z,57.83
2022-11-02T11:24:25.435Z,58.23
2022-11-02T11:27:31.554Z,60.58
2022-11-02T11:34:04.184Z,56.85
2022-11-02T11:37:13.902Z,58.09
2022-11-02T11:40:22.610Z,58.06
2022-11-02T11:43:31.920Z,57.44
2022-11-02T11:46:46.964Z,58.49
2022-11-02T11:50:12.940Z,57.65
2022-11-02T11:53:23.488Z,57.39
2022-11-02T11:56:29.985Z,56.81
2022-11-02T11:59:49.199Z,57.72
2022-11-02T12:03:06.991Z,59.04
2022-11-02T12:06:22.806Z,58.20
2022-11-02T12:09:35.422Z,56.36
2022-11-02T12:13:00.525Z,57.06
2022-11-02T12:16:16.194Z,57.97
2022-11-02T12:19:34.092Z,56.65
2022-11-02T12:22:51.456Z,57.13
2022-11-02T12:26:06.345Z,58.49
2022-11-02T12:29:32.872Z,56.25
2022-11-02T12:32:50.670Z,57.34
2022-11-02T12:36:25.142Z,57.44
2022-11-02T12:39:41.945Z,56.92
2022-11-02T12:42:57.348Z,57.62
2022-11-02T12:46:08.825Z,57.09
2022-11-02T12:49:31.221Z,58.02
2022-11-02T12:52:51.860Z,57.97
2022-11-02T12:56:02.044Z,56.63
2022-11-02T12:59:14.402Z,55.94
2022-11-02T13:02:26.633Z,55.27
2022-11-02T13:05:39.149Z,53.71
2022-11-02T13:08:51.266Z,54.09
2022-11-02T13:12:04.802Z,54.14
2022-11-02T13:15:19.000Z,55.04
2022-11-02T13:18:31.553Z,55.22
2022-11-02T13:21:44.319Z,55.18
2022-11-02T13:24:54.633Z,54.91
2022-11-02T13:28:05.843Z,55.61
2022-11-02T13:31:17.842Z,56.01
2022-11-02T13:34:33.967Z,56.57
2022-11-02T13:37:44.894Z,56.20
2022-11-02T13:40:58.750Z,55.28
2022-11-02T13:44:22.730Z,56.06
2022-11-02T13:47:52.039Z,56.24
2022-11-02T13:51:01.364Z,57.10
2022-11-02T13:54:14.016Z,57.11
2022-11-02T13:57:34.609Z,57.52
2022-11-02T14:00:45.604Z,57.37
2022-11-02T14:04:01.454Z,58.22
2022-11-02T14:07:10.632Z,58.44
2022-11-02T14:10:19.982Z,58.11
2022-11-02T14:14:17.059Z,58.71
2022-11-02T14:17:23.208Z,58.23
2022-11-02T14:20:37.157Z,58.78
2022-11-02T14:23:43.696Z,59.15
2022-11-02T14:26:59.298Z,58.74
2022-11-02T14:30:05.780Z,59.01
2022-11-02T14:33:18.784Z,59.51
2022-11-02T14:36:40.589Z,59.43
2022-11-02T14:39:54.414Z,59.18
2022-11-02T14:43:22.566Z,59.43
2022-11-02T14:46:48.622Z,59.49
2022-11-02T14:49:57.506Z,59.72
2022-11-02T14:53:09.139Z,60.08
2022-11-02T14:56:15.950Z,60.23
2022-11-02T14:59:26.697Z,60.55
2022-11-02T15:02:38.640Z,60.72
2022-11-02T15:05:48.648Z,60.96
2022-11-02T15:08:57.170Z,62.64
2022-11-02T15:12:22.601Z,63.10
2022-11-02T15:15:36.428Z,61.77
2022-11-02T15:18:42.817Z,60.59
2022-11-02T15:21:50.494Z,58.98
2022-11-02T15:24:58.777Z,58.69
2022-11-02T15:28:13.291Z,59.55
2022-11-02T15:31:25.875Z,60.31
2022-11-02T15:34:38.214Z,61.19
2022-11-02T15:38:11.281Z,63.30
2022-11-02T15:41:25.434Z,63.91
2022-11-02T15:45:14.298Z,62.41
2022-11-02T15:48:41.278Z,61.72
2022-11-02T15:51:55.385Z,61.01
2022-11-02T15:55:12.755Z,60.52
2022-11-02T15:58:33.636Z,59.82
2022-11-02T16:01:41.081Z,58.36
2022-11-02T16:04:51.594Z,58.91
2022-11-02T16:08:20.784Z,59.88
2022-11-02T16:11:25.926Z,60.75
2022-11-02T16:14:34.222Z,61.08
2022-11-02T16:17:40.643Z,64.08
2022-11-02T16:20:48.234Z,64.39
2022-11-02T16:23:59.530Z,62.00
2022-11-02T16:27:10.585Z,60.44
2022-11-02T16:30:24.581Z,60.22
2022-11-02T16:33:32.963Z,59.67
2022-11-02T16:36:40.622Z,58.61
2022-11-02T16:39:49.143Z,59.47
2022-11-02T16:42:56.150Z,60.72
2022-11-02T16:46:05.088Z,62.84
2022-11-02T16:49:19.786Z,63.48
2022-11-02T16:52:29.192Z,62.45
2022-11-02T16:55:44.468Z,62.20
2022-11-02T16:59:00.009Z,62.07
2022-11-02T17:02:13.341Z,61.53
2022-11-02T17:05:22.065Z,61.49
2022-11-02T17:08:34.430Z,60.97
2022-11-02T17:11:44.813Z,61.38
2022-11-02T17:14:52.118Z,61.18
2022-11-02T17:18:25.159Z,61.86
2022-11-02T17:21:32.441Z,61.26
2022-11-02T17:24:39.086Z,61.27
2022-11-02T17:27:45.274Z,60.90
2022-11-02T17:30:50.132Z,60.88
2022-11-02T17:33:58.142Z,60.89
2022-11-02T17:37:04.514Z,60.85
2022-11-02T17:40:14.145Z,62.05
2022-11-02T17:43:20.616Z,63.46
2022-11-02T17:46:26.846Z,63.76
2022-11-02T17:49:32.915Z,62.37
2022-11-02T17:52:39.845Z,62.16
2022-11-02T17:55:45.953Z,62.66
2022-11-02T17:58:50.431Z,62.94
2022-11-02T18:01:56.640Z,63.47
2022-11-02T18:05:02.808Z,63.07
2022-11-02T18:08:09.121Z,61.41
2022-11-02T18:11:15.331Z,61.49
2022-11-02T18:14:21.498Z,61.91
2022-11-02T18:17:31.091Z,61.31
2022-11-02T18:20:42.311Z,61.08
2022-11-02T18:23:48.732Z,61.51
2022-11-02T18:26:55.662Z,60.79
2022-11-02T18:30:01.863Z,60.94
2022-11-02T18:33:10.753Z,62.54
2022-11-02T18:36:19.745Z,63.99
2022-11-02T18:39:26.003Z,63.58
2022-11-02T18:42:32.804Z,62.39
2022-11-02T18:45:38.901Z,63.25
2022-11-02T18:48:45.067Z,63.62
2022-11-02T18:51:49.453Z,63.49
2022-11-02T18:54:56.116Z,63.44
2022-11-02T18:58:02.613Z,63.17
2022-11-02T19:01:14.355Z,62.93
2022-11-02T19:04:20.619Z,62.67
2022-11-02T19:07:42.601Z,62.51
2022-11-02T19:10:49.651Z,62.55
2022-11-02T19:13:55.856Z,62.03
2022-11-02T19:17:00.353Z,62.00
2022-11-02T19:20:07.551Z,61.94
2022-11-02T19:23:13.700Z,61.49
2022-11-02T19:26:18.277Z,61.10
2022-11-02T19:29:24.474Z,61.14
2022-11-02T19:32:29.026Z,60.81
2022-11-02T19:35:35.810Z,60.79
2022-11-02T19:38:42.373Z,60.31
2022-11-02T19:41:52.422Z,60.01
2022-11-02T19:44:58.558Z,59.81
2022-11-02T19:48:04.628Z,59.60
2022-11-02T19:51:15.817Z,59.62
2022-11-02T19:54:25.623Z,58.41
2022-11-02T19:57:33.394Z,58.67
2022-11-02T20:00:39.718Z,59.54
2022-11-02T20:03:44.687Z,60.57
2022-11-02T20:06:50.848Z,61.21
2022-11-02T20:09:58.688Z,63.95
2022-11-02T20:13:05.887Z,64.89
2022-11-02T20:16:13.783Z,63.73
2022-11-02T20:19:19.852Z,63.05
2022-11-02T20:22:26.026Z,62.28
2022-11-02T20:25:30.515Z,62.03
2022-11-02T20:28:40.038Z,61.80
2022-11-02T20:31:46.211Z,61.19
2022-11-02T20:34:50.832Z,60.71
2022-11-02T20:37:58.000Z,60.64
2022-11-02T20:41:12.595Z,60.14
2022-11-02T20:44:20.992Z,59.83
2022-11-02T20:47:27.401Z,59.61
2022-11-02T20:50:33.888Z,58.65
2022-11-02T20:53:40.270Z,58.60
2022-11-02T20:56:46.448Z,59.51
2022-11-02T20:59:50.929Z,60.32
2022-11-02T21:02:57.129Z,60.44
2022-11-02T21:06:03.238Z,63.59
2022-11-02T21:09:12.097Z,64.28
2022-11-02T21:12:36.946Z,63.29
2022-11-02T21:15:43.190Z,62.33
2022-11-02T21:18:49.499Z,61.66
2022-11-02T21:21:59.747Z,61.15
2022-11-02T21:25:07.366Z,60.79
2022-11-02T21:28:13.563Z,60.35
2022-11-02T21:31:19.456Z,60.17
2022-11-02T21:34:25.610Z,60.00
2022-11-02T21:37:30.337Z,59.62
2022-11-02T21:40:36.392Z,59.49
2022-11-02T21:43:42.391Z,58.19
2022-11-02T21:46:48.525Z,58.65
2022-11-02T21:49:53.038Z,59.58
2022-11-02T21:52:59.551Z,60.00
2022-11-02T21:56:07.850Z,62.61
2022-11-02T21:59:13.971Z,63.32
2022-11-02T22:02:19.129Z,62.38
2022-11-02T22:05:39.141Z,62.08
2022-11-02T22:08:45.818Z,61.16
2022-11-02T22:12:14.406Z,60.73
2022-11-02T22:15:20.538Z,60.35
2022-11-02T22:18:25.016Z,59.90
2022-11-02T22:21:32.417Z,59.81
2022-11-02T22:24:42.138Z,59.58
2022-11-02T22:27:50.839Z,58.52
2022-11-02T22:30:55.288Z,58.32
2022-11-02T22:34:04.954Z,58.86
2022-11-02T22:37:28.708Z,60.43
2022-11-02T22:40:34.834Z,62.93
2022-11-02T22:43:39.393Z,63.39
2022-11-02T22:46:47.258Z,62.73
2022-11-02T22:49:53.251Z,61.77
2022-11-02T22:52:59.398Z,61.06
2022-11-02T22:56:07.687Z,60.59
2022-11-02T22:59:14.037Z,60.56
2022-11-02T23:02:20.183Z,60.15
2022-11-02T23:05:24.693Z,59.91
2022-11-02T23:08:31.698Z,59.93
2022-11-02T23:11:38.878Z,59.54
2022-11-02T23:14:44.950Z,58.58
2022-11-02T23:17:52.590Z,58.60
2022-11-02T23:20:58.660Z,59.55
2022-11-02T23:24:23.177Z,60.91
2022-11-02T23:27:29.806Z,63.16
2022-11-02T23:30:55.487Z,63.57
2022-11-02T23:34:00.006Z,62.60
2022-11-02T23:37:08.042Z,62.05
2022-11-02T23:40:16.332Z,61.51
2022-11-02T23:43:22.466Z,61.50
2022-11-02T23:46:27.011Z,60.96
2022-11-02T23:49:33.068Z,60.78
2022-11-02T23:52:57.565Z,60.45
2022-11-02T23:56:22.266Z,60.18
2022-11-02T23:59:29.258Z,59.98
